Time;durP1;ratioP1;P1;durP2;ratioP2;P2;SDS_P1;SDS_P2;PMS_P1;PMS_P2;Temp;Humidity;BMP_temperature;BMP_pressure;BME280_temperature;BME280_humidity;BME280_pressure;Samples;Min_cycle;Max_cycle;Signal;HPM_P1;HPM_P2
2023/06/06 00:01:18;;;;;;;4.45;1.85;;;;;;;;;;5036465;28;20021;-76
2023/06/06 00:03:44;;;;;;;4.50;1.95;;;11.50;99.90;;;;;;5054500;28;20059;-75
2023/06/06 00:06:12;;;;;;;5.40;1.73;;;12.40;99.90;;;;;;5036355;28;20025;-75
2023/06/06 00:08:37;;;;;;;5.95;2.42;;;11.40;99.90;;;;;;5036445;28;20033;-75
2023/06/06 00:11:03;;;;;;;6.43;2.72;;;11.40;99.90;;;;;;5054205;28;20032;-75
2023/06/06 00:13:32;;;;;;;5.90;1.95;;;;;;;;;;5054355;28;20475;-75
2023/06/06 00:15:58;;;;;;;8.38;2.47;;;11.40;99.90;;;;;;5036378;28;20380;-75
2023/06/06 00:18:26;;;;;;;5.22;2.15;;;11.40;99.90;;;;;;5054190;28;20028;-74
2023/06/06 00:20:53;;;;;;;5.05;1.73;;;11.30;99.90;;;;;;5054429;28;20074;-74
2023/06/06 00:23:20;;;;;;;7.18;2.72;;;12.00;99.90;;;;;;5054318;28;20100;-75
2023/06/06 00:25:46;;;;;;;9.02;2.72;;;11.30;99.90;;;;;;5054592;28;20027;-75
2023/06/06 00:28:13;;;;;;;9.88;2.38;;;11.30;99.90;;;;;;5053812;28;20152;-76
2023/06/06 00:30:39;;;;;;;12.38;1.92;;;11.20;99.90;;;;;;5054073;28;20061;-76
2023/06/06 00:33:04;;;;;;;6.05;2.42;;;11.20;99.90;;;;;;5053983;28;20029;-76
2023/06/06 00:35:30;;;;;;;8.00;2.33;;;11.20;99.90;;;;;;5053721;28;20471;-76
2023/06/06 00:37:55;;;;;;;7.50;2.33;;;11.20;99.90;;;;;;5053955;28;20021;-76
2023/06/06 00:40:21;;;;;;;5.63;2.20;;;11.10;99.90;;;;;;5053581;28;20025;-74
2023/06/06 00:42:47;;;;;;;8.88;2.80;;;11.10;99.90;;;;;;5053624;28;20031;-75
2023/06/06 00:45:12;;;;;;;6.63;2.63;;;11.10;99.90;;;;;;5036166;28;20017;-77
2023/06/06 00:47:38;;;;;;;4.53;1.92;;;11.10;99.90;;;;;;5053823;28;20100;-76
2023/06/06 00:50:05;;;;;;;7.47;2.47;;;11.00;99.90;;;;;;5053682;28;20029;-75
2023/06/06 00:52:31;;;;;;;6.55;2.63;;;11.00;99.90;;;;;;5035853;28;20031;-77
2023/06/06 00:55:00;;;;;;;6.10;2.15;;;11.00;99.90;;;;;;5035730;28;20021;-75
2023/06/06 00:57:26;;;;;;;;;;;11.00;99.90;;;;;;5054108;28;20549;-75
2023/06/06 00:59:53;;;;;;;5.50;2.20;;;10.90;99.90;;;;;;5053255;28;19959;-75
2023/06/06 01:02:19;;;;;;;7.60;2.38;;;;;;;;;;5053287;28;20029;-75
2023/06/06 01:04:45;;;;;;;10.48;2.45;;;10.90;99.90;;;;;;5035479;28;20398;-75
2023/06/06 01:07:17;;;;;;;5.25;1.80;;;10.80;99.90;;;;;;5035396;28;20021;-75
2023/06/06 01:09:44;;;;;;;5.15;2.10;;;10.80;99.90;;;;;;5053398;28;20025;-75
2023/06/06 01:12:48;;;;;;;6.28;1.98;;;10.80;99.90;;;;;;5053328;28;20518;-75
2023/06/06 01:15:36;;;;;;;5.50;1.90;;;10.70;99.90;;;;;;5053260;28;20390;-76
2023/06/06 01:18:03;;;;;;;8.18;1.75;;;10.60;99.90;;;;;;5052972;28;20453;-75
2023/06/06 01:20:30;;;;;;;5.00;2.47;;;10.70;99.90;;;;;;5053160;28;20027;-76
2023/06/06 01:22:57;;;;;;;6.07;1.83;;;10.70;99.90;;;;;;5053224;28;20101;-76
2023/06/06 01:25:25;;;;;;;7.07;1.90;;;10.70;99.90;;;;;;5053208;28;20032;-76
2023/06/06 01:27:53;;;;;;;6.53;1.50;;;10.60;99.90;;;;;;5035278;28;20049;-76
2023/06/06 01:30:22;;;;;;;5.10;1.90;;;10.60;99.90;;;;;;5053212;28;20056;-76
2023/06/06 01:33:15;;;;;;;6.28;2.58;;;10.60;99.90;;;;;;5035302;28;20479;-76
2023/06/06 01:35:58;;;;;;;5.90;1.85;;;10.60;99.90;;;;;;5035402;28;20422;-75
2023/06/06 01:38:30;;;;;;;5.00;2.17;;;10.60;99.90;;;;;;5035266;28;20017;-76
2023/06/06 01:41:02;;;;;;;7.88;2.33;;;10.60;99.90;;;;;;5053846;28;20031;-75
2023/06/06 01:43:30;;;;;;;8.50;2.90;;;10.60;99.90;;;;;;5053222;28;20091;-75
2023/06/06 01:45:56;;;;;;;8.48;2.38;;;10.60;99.90;;;;;;5053465;28;20129;-76
2023/06/06 01:48:23;;;;;;;5.90;1.52;;;10.60;99.90;;;;;;5052981;28;20025;-76
2023/06/06 01:50:50;;;;;;;6.45;1.95;;;10.60;99.90;;;;;;5053487;28;20379;-76
2023/06/06 01:53:15;;;;;;;6.97;2.53;;;10.60;99.90;;;;;;5052951;28;20108;-76
2023/06/06 01:55:41;;;;;;;6.10;1.55;;;10.50;99.90;;;;;;5052852;28;20052;-76
2023/06/06 01:58:08;;;;;;;7.90;2.45;;;10.50;99.90;;;;;;5052870;28;20036;-76
2023/06/06 02:00:33;;;;;;;8.60;2.20;;;10.50;99.90;;;;;;5052611;28;20503;-76
2023/06/06 02:02:59;;;;;;;9.75;1.88;;;10.50;99.90;;;;;;5035239;28;20020;-76
2023/06/06 02:05:24;;;;;;;5.97;2.03;;;10.50;99.90;;;;;;5052804;28;20397;-76
2023/06/06 02:07:51;;;;;;;5.75;2.03;;;10.50;99.90;;;;;;5053000;28;20379;-76
2023/06/06 02:10:17;;;;;;;7.25;1.98;;;10.50;99.90;;;;;;5053358;28;20024;-76
2023/06/06 02:12:42;;;;;;;5.00;2.22;;;10.40;99.90;;;;;;5052634;28;20103;-76
2023/06/06 02:15:10;;;;;;;7.18;2.35;;;10.40;99.90;;;;;;5052979;28;20036;-76
2023/06/06 02:17:35;;;;;;;9.50;1.88;;;10.40;99.90;;;;;;5052836;28;20068;-75
2023/06/06 02:20:04;;;;;;;5.00;2.08;;;10.40;99.90;;;;;;5056395;28;20060;-76
2023/06/06 02:22:29;;;;;;;5.28;2.03;;;10.40;99.90;;;;;;5057628;28;20025;-75
2023/06/06 02:24:55;;;;;;;10.13;1.88;;;10.50;99.90;;;;;;5057092;28;20507;-75
2023/06/06 02:27:24;;;;;;;12.15;3.08;;;11.60;99.90;;;;;;5038969;28;20070;-75
2023/06/06 02:29:52;;;;;;;3.47;1.38;;;10.40;99.90;;;;;;5038670;28;20021;-76
2023/06/06 02:32:18;;;;;;;6.45;1.73;;;10.40;99.90;;;;;;5056962;28;20036;-76
2023/06/06 02:34:43;;;;;;;5.53;1.85;;;10.40;99.90;;;;;;5038027;28;20037;-76
2023/06/06 02:37:09;;;;;;;7.35;2.78;;;10.40;99.90;;;;;;5056724;28;20029;-75
2023/06/06 02:39:35;;;;;;;3.53;1.70;;;10.40;99.90;;;;;;5056583;28;20555;-75
2023/06/06 02:42:05;;;;;;;7.13;2.58;;;10.40;99.90;;;;;;5056217;28;20025;-75
2023/06/06 02:44:30;;;;;;;7.75;2.05;;;10.30;99.90;;;;;;5038715;28;20013;-75
2023/06/06 02:46:57;;;;;;;7.10;1.95;;;10.30;99.90;;;;;;5056461;28;20112;-75
2023/06/06 02:49:23;;;;;;;5.90;1.75;;;10.30;99.90;;;;;;5056465;28;20025;-76
2023/06/06 02:51:48;;;;;;;4.03;1.60;;;10.30;99.90;;;;;;5038433;28;20052;-75
2023/06/06 02:54:17;;;;;;;5.85;1.73;;;10.30;99.90;;;;;;5038616;28;20369;-76
2023/06/06 02:56:42;;;;;;;8.85;1.45;;;10.30;99.90;;;;;;5056341;28;20017;-75
2023/06/06 02:59:08;;;;;;;9.32;2.20;;;10.20;99.90;;;;;;5055982;28;20033;-75
2023/06/06 03:01:44;;;;;;;4.30;1.27;;;10.20;99.90;;;;;;5055946;28;20020;-75
2023/06/06 03:04:11;;;;;;;4.97;1.70;;;10.20;99.90;;;;;;5056114;28;20436;-75
2023/06/06 03:06:39;;;;;;;4.38;1.75;;;10.20;99.90;;;;;;5055913;28;20072;-75
2023/06/06 03:09:05;;;;;;;8.80;2.23;;;10.10;99.90;;;;;;5055713;28;20483;-75
2023/06/06 03:11:31;;;;;;;9.32;2.28;;;10.20;99.90;;;;;;5056059;28;20036;-75
2023/06/06 03:13:57;;;;;;;6.25;1.17;;;10.20;99.90;;;;;;5055767;28;20021;-76
2023/06/06 03:16:26;;;;;;;3.50;1.02;;;10.10;99.90;;;;;;5055742;28;20365;-75
2023/06/06 03:18:52;;;;;;;11.45;1.85;;;;;;;;;;5056043;28;20013;-75
2023/06/06 03:21:19;;;;;;;5.20;1.83;;;10.10;99.90;;;;;;5055636;28;20033;-75
2023/06/06 03:23:44;;;;;;;7.00;1.70;;;10.10;99.90;;;;;;5037841;28;20028;-75
2023/06/06 03:26:10;;;;;;;3.88;1.75;;;10.00;99.90;;;;;;5037918;28;20422;-75
2023/06/06 03:28:35;;;;;;;5.93;1.77;;;10.10;99.90;;;;;;5037643;28;20459;-75
2023/06/06 03:31:05;;;;;;;4.80;1.50;;;10.10;99.90;;;;;;5038259;28;20104;-75
2023/06/06 03:33:32;;;;;;;5.55;2.08;;;10.00;99.90;;;;;;5055617;28;20025;-76
2023/06/06 03:35:58;;;;;;;6.35;1.65;;;10.00;99.90;;;;;;5055668;28;20577;-76
2023/06/06 03:38:24;;;;;;;5.82;1.73;;;;;;;;;;5037715;28;20021;-76
2023/06/06 03:40:50;;;;;;;9.63;2.53;;;9.90;99.90;;;;;;5055936;28;20150;-76
2023/06/06 03:43:15;;;;;;;8.13;1.30;;;9.90;99.90;;;;;;5055108;28;20028;-76
2023/06/06 03:45:41;;;;;;;5.80;1.35;;;9.90;99.90;;;;;;5037543;28;20112;-76
2023/06/06 03:48:09;;;;;;;6.47;2.47;;;9.90;99.90;;;;;;5055307;28;20106;-76
2023/06/06 03:50:35;;;;;;;7.85;1.60;;;9.90;99.90;;;;;;5037387;28;20025;-76
2023/06/06 03:53:01;;;;;;;3.47;1.52;;;9.90;99.90;;;;;;5037506;28;20041;-76
2023/06/06 03:55:26;;;;;;;4.45;1.25;;;9.90;99.90;;;;;;5037465;28;20084;-76
2023/06/06 03:57:53;;;;;;;5.30;1.63;;;10.00;99.90;;;;;;5055088;28;20028;-76
2023/06/06 04:00:19;;;;;;;6.47;1.58;;;10.00;99.90;;;;;;5055468;28;20431;-76
2023/06/06 04:02:48;;;;;;;5.28;1.95;;;10.00;99.90;;;;;;5055233;28;20029;-75
2023/06/06 04:05:16;;;;;;;5.70;1.65;;;10.10;99.90;;;;;;5037503;28;20021;-76
2023/06/06 04:07:42;;;;;;;8.95;1.95;;;10.10;99.90;;;;;;5055144;28;20025;-76
2023/06/06 04:10:08;;;;;;;6.90;2.38;;;10.10;99.90;;;;;;5055486;28;20017;-76
2023/06/06 04:12:33;;;;;;;7.85;1.73;;;10.20;99.90;;;;;;5055526;28;20126;-76
2023/06/06 04:14:59;;;;;;;4.72;1.90;;;10.20;99.90;;;;;;5055250;28;20020;-76
2023/06/06 04:17:25;;;;;;;6.20;1.92;;;10.20;99.90;;;;;;5054584;28;20071;-75
2023/06/06 04:19:51;;;;;;;4.70;1.23;;;10.30;99.90;;;;;;5054552;28;20040;-76
2023/06/06 04:22:18;;;;;;;8.57;1.02;;;10.10;99.90;;;;;;5054619;28;20062;-75
2023/06/06 04:24:44;;;;;;;6.07;1.33;;;10.40;99.90;;;;;;5036993;28;20013;-75
2023/06/06 04:27:10;;;;;;;3.10;1.10;;;11.50;99.90;;;;;;5036640;28;20479;-76
2023/06/06 04:29:36;;;;;;;7.97;1.77;;;10.50;99.90;;;;;;5036276;28;20036;-76
2023/06/06 04:32:02;;;;;;;9.10;1.02;;;10.60;99.90;;;;;;5054085;28;20445;-76
2023/06/06 04:34:30;;;;;;;10.70;1.65;;;10.60;99.90;;;;;;5054280;28;20025;-76
2023/06/06 04:37:03;;;;;;;6.45;1.52;;;10.70;99.90;;;;;;5036140;28;20492;-76
2023/06/06 04:39:31;;;;;;;6.32;1.75;;;10.80;99.90;;;;;;5036036;28;20458;-76
2023/06/06 04:42:01;;;;;;;5.40;1.73;;;10.80;99.90;;;;;;5053622;28;20028;-76
2023/06/06 04:44:27;;;;;;;5.47;1.50;;;10.90;99.90;;;;;;5036061;28;20047;-75
2023/06/06 04:47:00;;;;;;;8.77;1.85;;;11.00;99.90;;;;;;5054069;28;20017;-76
2023/06/06 04:49:30;;;;;;;6.00;1.48;;;11.00;99.90;;;;;;5053761;28;20029;-75
2023/06/06 04:51:59;;;;;;;6.43;1.52;;;11.10;99.90;;;;;;5053842;28;20546;-75
2023/06/06 04:54:25;;;;;;;6.72;1.45;;;11.20;99.90;;;;;;5053746;28;20024;-76
2023/06/06 04:56:56;;;;;;;5.10;1.55;;;11.30;99.90;;;;;;5053466;28;20076;-75
2023/06/06 04:59:22;;;;;;;9.73;1.77;;;11.30;99.90;;;;;;5035867;28;20052;-75
2023/06/06 05:01:49;;;;;;;8.68;1.65;;;11.40;99.90;;;;;;5053390;28;20060;-76
2023/06/06 05:04:15;;;;;;;5.05;1.42;;;11.50;99.90;;;;;;5035589;28;20021;-76
2023/06/06 05:06:41;;;;;;;6.45;1.13;;;11.60;99.90;;;;;;5053547;28;20032;-76
2023/06/06 05:09:07;;;;;;;4.13;1.80;;;11.70;99.90;;;;;;5035386;28;20029;-76
2023/06/06 05:11:33;;;;;;;6.13;2.00;;;11.70;99.90;;;;;;5053389;28;20024;-76
2023/06/06 05:14:00;;;;;;;6.43;1.60;;;11.80;99.90;;;;;;5053335;28;20086;-76
2023/06/06 05:16:26;;;;;;;5.38;1.45;;;12.00;99.90;;;;;;5053205;28;20021;-76
2023/06/06 05:18:52;;;;;;;6.68;2.25;;;;;;;;;;5053245;28;20436;-76
2023/06/06 05:21:20;;;;;;;4.45;1.77;;;12.20;99.90;;;;;;5053720;28;20026;-76
2023/06/06 05:23:46;;;;;;;9.73;2.78;;;12.20;99.90;;;;;;5053146;28;20017;-75
2023/06/06 05:26:12;;;;;;;7.20;1.95;;;12.20;99.90;;;;;;5053494;28;20035;-76
2023/06/06 05:28:38;;;;;;;7.28;1.75;;;12.30;99.90;;;;;;5052895;28;20029;-75
2023/06/06 05:31:08;;;;;;;3.92;1.48;;;12.40;99.90;;;;;;5053253;28;20032;-76
2023/06/06 05:33:34;;;;;;;7.50;1.80;;;12.50;99.90;;;;;;5053499;28;20063;-76
2023/06/06 05:36:00;;;;;;;5.88;1.58;;;12.60;99.90;;;;;;5053309;28;20021;-75
2023/06/06 05:38:26;;;;;;;8.48;2.03;;;12.70;99.90;;;;;;5053001;28;20105;-75
2023/06/06 05:40:52;;;;;;;7.68;1.95;;;12.70;99.90;;;;;;5053012;28;20053;-75
2023/06/06 05:43:18;;;;;;;7.47;2.15;;;12.90;99.90;;;;;;5035176;28;20115;-75
2023/06/06 05:45:43;;;;;;;9.02;2.50;;;13.00;99.90;;;;;;5052803;28;20025;-75
2023/06/06 05:48:09;;;;;;;6.75;1.88;;;;;;;;;;5052982;28;20033;-75
2023/06/06 05:50:35;;;;;;;5.45;1.52;;;13.00;99.90;;;;;;5052781;28;20483;-76
2023/06/06 05:53:02;;;;;;;8.73;2.17;;;14.40;99.90;;;;;;5053073;28;20043;-77
2023/06/06 05:55:33;;;;;;;10.02;1.98;;;13.30;99.90;;;;;;5056913;28;20028;-76
2023/06/06 05:58:03;;;;;;;7.57;1.67;;;13.30;99.90;;;;;;5038931;28;20031;-75
2023/06/06 06:00:30;;;;;;;5.72;1.88;;;13.10;99.90;;;;;;5056433;28;20021;-74
2023/06/06 06:02:58;;;;;;;6.40;2.08;;;13.40;99.90;;;;;;5038677;28;20092;-74
2023/06/06 06:05:28;;;;;;;6.05;1.80;;;14.20;99.90;;;;;;5056686;28;20025;-76
2023/06/06 06:08:04;;;;;;;4.80;1.52;;;13.60;99.90;;;;;;5057027;28;20024;-76
2023/06/06 06:10:33;;;;;;;5.03;1.83;;;13.70;99.90;;;;;;5057372;28;20025;-76
2023/06/06 06:13:00;;;;;;;6.05;2.22;;;13.80;99.90;;;;;;5038801;28;20032;-76
2023/06/06 06:15:25;;;;;;;6.90;1.45;;;13.80;99.90;;;;;;5056307;28;20017;-76
2023/06/06 06:17:51;;;;;;;6.78;1.80;;;13.80;99.90;;;;;;5056509;28;20032;-76
2023/06/06 06:20:19;;;;;;;5.68;1.85;;;13.90;99.90;;;;;;5056826;28;20541;-77
2023/06/06 06:22:46;;;;;;;7.43;1.77;;;14.00;99.90;;;;;;5039338;28;20025;-77
2023/06/06 06:25:12;;;;;;;7.45;1.90;;;14.10;99.90;;;;;;5039443;28;20021;-77
2023/06/06 06:27:41;;;;;;;7.82;1.10;;;14.70;99.90;;;;;;5056779;28;20025;-77
2023/06/06 06:30:09;;;;;;;6.80;1.52;;;14.30;99.90;;;;;;5056495;28;20028;-76
2023/06/06 06:32:36;;;;;;;5.93;1.60;;;14.50;99.90;;;;;;5056423;28;20029;-76
2023/06/06 06:35:03;;;;;;;8.40;1.67;;;14.60;99.90;;;;;;5056698;28;20099;-76
2023/06/06 06:37:30;;;;;;;4.50;1.58;;;14.70;99.90;;;;;;5056525;28;20029;-76
2023/06/06 06:39:58;;;;;;;8.40;1.55;;;14.70;99.90;;;;;;5056868;28;20021;-76
2023/06/06 06:42:25;;;;;;;5.55;1.70;;;14.70;99.90;;;;;;5056830;28;20025;-76
2023/06/06 06:44:52;;;;;;;7.68;1.70;;;14.70;99.90;;;;;;5057045;28;20021;-76
2023/06/06 06:47:17;;;;;;;4.32;1.25;;;14.90;99.90;;;;;;5056578;28;20057;-76
2023/06/06 06:49:43;;;;;;;6.43;1.30;;;14.90;99.90;;;;;;5056138;28;20059;-76
2023/06/06 06:52:15;;;;;;;4.13;1.80;;;15.20;99.90;;;;;;5055984;28;20041;-76
2023/06/06 06:54:53;;;;;;;6.43;1.33;;;15.10;99.90;;;;;;5056338;28;20043;-76
2023/06/06 06:57:20;;;;;;;6.47;1.20;;;15.20;99.90;;;;;;5036624;28;20045;-76
2023/06/06 06:59:47;;;;;;;4.57;1.00;;;15.40;99.90;;;;;;5055902;28;20014;-76
2023/06/06 07:02:13;;;;;;;6.90;1.70;;;15.60;99.90;;;;;;5037629;28;20544;-76
2023/06/06 07:04:39;;;;;;;7.03;1.08;;;15.80;99.90;;;;;;5055447;28;20029;-76
2023/06/06 07:07:06;;;;;;;4.82;1.00;;;16.00;99.90;;;;;;5055720;28;20048;-76
2023/06/06 07:09:34;;;;;;;10.60;2.40;;;16.10;99.90;;;;;;5038064;28;20036;-76
2023/06/06 07:12:00;;;;;;;5.72;1.02;;;16.30;99.90;;;;;;5041033;28;20029;-77
2023/06/06 07:14:26;;;;;;;3.15;0.50;;;16.20;99.90;;;;;;5038805;28;20438;-77
2023/06/06 07:16:51;;;;;;;1.90;0.57;;;16.30;99.90;;;;;;5055521;28;20025;-76
2023/06/06 07:19:20;;;;;;;5.38;1.20;;;16.40;99.90;;;;;;5055840;28;20029;-76
2023/06/06 07:21:46;;;;;;;3.15;1.00;;;16.40;99.90;;;;;;5055788;28;20024;-77
2023/06/06 07:24:12;;;;;;;7.47;0.68;;;16.40;99.90;;;;;;5057719;28;20387;-77
2023/06/06 07:26:37;;;;;;;3.42;0.98;;;16.60;99.90;;;;;;5057558;28;20032;-78
2023/06/06 07:29:03;;;;;;;4.00;1.20;;;16.90;99.90;;;;;;5056176;28;20020;-77
2023/06/06 07:31:29;;;;;;;6.47;0.80;;;16.80;99.90;;;;;;5040923;28;20070;-77
2023/06/06 07:33:55;;;;;;;8.10;1.10;;;17.20;99.90;;;;;;5058585;28;20399;-77
2023/06/06 07:36:21;;;;;;;7.50;1.70;;;17.90;99.90;;;;;;5037632;28;20036;-77
2023/06/06 07:38:46;;;;;;;6.55;0.60;;;17.40;99.90;;;;;;5055305;28;20091;-77
2023/06/06 07:41:12;;;;;;;3.97;0.98;;;17.50;99.90;;;;;;5055701;28;20594;-77
2023/06/06 07:43:38;;;;;;;4.15;0.75;;;18.20;99.90;;;;;;5055504;28;20497;-76
2023/06/06 07:46:03;;;;;;;3.03;0.80;;;17.80;99.90;;;;;;5055406;28;20029;-76
2023/06/06 07:48:29;;;;;;;3.35;1.08;;;18.00;99.90;;;;;;5054767;28;20100;-76
2023/06/06 07:50:54;;;;;;;8.23;1.13;;;18.00;99.90;;;;;;5054539;28;20035;-76
2023/06/06 07:53:20;;;;;;;5.50;0.95;;;18.10;99.90;;;;;;5055319;28;20476;-76
2023/06/06 07:55:47;;;;;;;4.05;1.00;;;18.10;99.90;;;;;;5054645;28;20392;-76
2023/06/06 07:58:13;;;;;;;6.90;1.50;;;18.30;99.90;;;;;;5054398;28;20101;-76
2023/06/06 08:00:44;;;;;;;2.63;0.70;;;18.30;99.90;;;;;;5053818;28;20390;-77
2023/06/06 08:03:11;;;;;;;4.10;0.63;;;18.40;99.90;;;;;;5036372;28;20021;-76
2023/06/06 08:05:38;;;;;;;5.60;0.90;;;18.60;99.90;;;;;;5054293;28;20013;-75
2023/06/06 08:08:06;;;;;;;8.73;1.00;;;18.80;99.90;;;;;;5036546;28;20472;-75
2023/06/06 08:10:32;;;;;;;6.32;1.20;;;18.80;99.90;;;;;;5053983;28;20013;-76
2023/06/06 08:12:57;;;;;;;7.68;0.98;;;18.80;99.90;;;;;;5054519;28;20021;-76
2023/06/06 08:15:24;;;;;;;5.40;1.10;;;18.90;99.90;;;;;;5053593;28;20029;-75
2023/06/06 08:17:50;;;;;;;4.18;0.50;;;19.00;99.90;;;;;;5053767;28;20032;-75
2023/06/06 08:20:15;;;;;;;5.40;0.93;;;19.00;99.90;;;;;;5053840;28;20021;-75
2023/06/06 08:22:51;;;;;;;2.92;0.63;;;19.00;99.90;;;;;;5036028;28;20025;-75
2023/06/06 08:25:17;;;;;;;5.25;1.73;;;19.00;99.90;;;;;;5053955;28;20104;-75
2023/06/06 08:27:42;;;;;;;7.07;1.08;;;19.00;99.90;;;;;;5036091;28;20155;-74
2023/06/06 08:30:09;;;;;;;2.65;1.05;;;19.10;99.90;;;;;;5035739;28;20029;-75
2023/06/06 08:32:35;;;;;;;3.83;1.33;;;19.00;99.90;;;;;;5053596;28;20068;-75
2023/06/06 08:35:03;;;;;;;4.15;0.82;;;19.00;99.90;;;;;;5035801;28;20386;-75
2023/06/06 08:37:28;;;;;;;10.85;0.95;;;19.10;99.90;;;;;;5053810;28;20033;-75
2023/06/06 08:39:54;;;;;;;4.15;1.02;;;19.20;99.90;;;;;;5053602;28;20494;-75
2023/06/06 08:42:22;;;;;;;3.70;0.60;;;;;;;;;;5053531;28;20025;-75
2023/06/06 08:44:49;;;;;;;3.88;0.90;;;19.20;99.90;;;;;;5052925;28;20020;-75
2023/06/06 08:47:16;;;;;;;2.80;0.60;;;19.30;99.90;;;;;;5053942;28;20052;-75
2023/06/06 08:49:42;;;;;;;5.80;0.93;;;19.40;99.90;;;;;;5053390;28;20559;-75
2023/06/06 08:52:09;;;;;;;2.83;0.68;;;19.60;99.90;;;;;;5053458;28;20048;-75
2023/06/06 08:54:36;;;;;;;3.33;0.85;;;19.60;99.90;;;;;;5053658;28;20485;-77
2023/06/06 08:57:08;;;;;;;3.83;0.85;;;19.80;99.90;;;;;;5053491;28;20096;-75
2023/06/06 08:59:37;;;;;;;3.75;0.95;;;19.90;99.90;;;;;;5035324;28;20032;-76
2023/06/06 09:02:07;;;;;;;2.80;0.60;;;20.20;99.90;;;;;;5035482;28;20024;-76
2023/06/06 09:04:34;;;;;;;3.15;0.50;;;20.30;99.90;;;;;;5035701;28;20067;-75
2023/06/06 09:07:11;;;;;;;2.05;0.45;;;20.40;99.90;;;;;;5052878;28;20021;-75
2023/06/06 09:09:38;;;;;;;5.20;0.52;;;20.60;99.90;;;;;;5035246;28;20048;-76
2023/06/06 09:12:06;;;;;;;2.87;0.87;;;20.70;99.90;;;;;;5052898;28;20017;-75
2023/06/06 09:14:32;;;;;;;4.03;0.65;;;20.80;99.90;;;;;;5034241;28;20103;-75
2023/06/06 09:16:58;;;;;;;1.63;0.85;;;20.90;99.90;;;;;;5052822;28;20185;-75
2023/06/06 09:19:25;;;;;;;4.85;0.50;;;20.90;99.90;;;;;;5053219;28;20083;-76
2023/06/06 09:21:51;;;;;;;2.67;0.47;;;21.00;99.90;;;;;;5052652;28;20035;-76
2023/06/06 09:24:17;;;;;;;5.30;0.98;;;21.10;99.90;;;;;;5052879;28;20108;-75
2023/06/06 09:26:42;;;;;;;6.30;0.70;;;21.40;99.90;;;;;;5053185;28;20025;-76
2023/06/06 09:29:11;;;;;;;4.95;0.52;;;21.50;99.90;;;;;;5034857;28;20135;-75
2023/06/06 09:31:40;;;;;;;;;;;21.60;99.90;;;;;;5034771;28;20079;-75
2023/06/06 09:34:08;;;;;;;5.07;0.75;;;21.70;99.90;;;;;;5034932;28;19905;-76
2023/06/06 09:36:33;;;;;;;4.30;0.87;;;21.90;99.90;;;;;;5053037;28;20522;-75
2023/06/06 09:39:08;;;;;;;2.08;0.85;;;21.90;99.90;;;;;;5052979;28;20029;-75
2023/06/06 09:41:41;;;;;;;4.45;0.45;;;21.90;99.90;;;;;;5052750;28;20100;-75
2023/06/06 09:44:22;;;;;;;3.55;1.00;;;22.10;99.90;;;;;;5034944;28;20480;-75
2023/06/06 09:46:58;;;;;;;4.22;1.00;;;22.20;99.50;;;;;;5053158;28;20023;-75
2023/06/06 09:49:24;;;;;;;5.22;1.30;;;22.10;98.80;;;;;;5052851;28;20029;-75
2023/06/06 09:51:53;;;;;;;5.03;1.40;;;22.10;99.50;;;;;;5052798;28;20059;-75
2023/06/06 09:54:21;;;;;;;5.18;1.17;;;22.00;99.90;;;;;;5052650;28;20029;-76
2023/06/06 09:56:47;;;;;;;5.32;1.30;;;22.00;99.90;;;;;;5034204;28;20028;-76
2023/06/06 09:59:14;;;;;;;3.05;0.85;;;22.10;99.20;;;;;;5052292;28;20021;-75
2023/06/06 10:01:42;;;;;;;7.07;1.17;;;22.30;99.20;;;;;;5052021;28;20036;-75
2023/06/06 10:04:09;;;;;;;5.57;1.25;;;22.30;99.20;;;;;;5052521;28;20074;-75
2023/06/06 10:06:37;;;;;;;3.70;1.13;;;22.50;99.20;;;;;;5052479;28;20496;-75
2023/06/06 10:09:06;;;;;;;5.00;1.38;;;22.50;98.80;;;;;;5052524;28;20438;-75
2023/06/06 10:11:33;;;;;;;3.78;0.80;;;22.50;99.40;;;;;;5052600;28;20391;-75
2023/06/06 10:14:00;;;;;;;5.65;1.95;;;22.70;98.40;;;;;;5034422;28;20032;-76
2023/06/06 10:16:27;;;;;;;7.13;1.23;;;22.60;97.00;;;;;;5052224;28;20056;-75
2023/06/06 10:18:53;;;;;;;6.88;1.50;;;22.50;97.20;;;;;;5052205;28;20032;-75
2023/06/06 10:21:20;;;;;;;6.45;1.40;;;22.50;98.90;;;;;;5034607;28;20384;-75
2023/06/06 10:23:48;;;;;;;4.57;1.25;;;22.80;99.00;;;;;;5034663;28;20023;-75
2023/06/06 10:26:20;;;;;;;3.42;1.33;;;23.10;98.10;;;;;;5052368;28;20518;-76
2023/06/06 10:29:07;;;;;;;4.40;1.00;;;23.10;96.50;;;;;;5052551;28;20444;-75
2023/06/06 10:31:51;;;;;;;2.83;1.17;;;23.10;96.60;;;;;;5034522;28;20025;-75
2023/06/06 10:34:40;;;;;;;5.20;1.20;;;23.10;96.90;;;;;;5052321;28;20044;-75
2023/06/06 10:37:20;;;;;;;6.68;1.52;;;23.10;97.30;;;;;;5052791;28;20103;-76
2023/06/06 10:39:59;;;;;;;2.78;1.15;;;;;;;;;;5053940;28;20033;-76
2023/06/06 10:42:45;;;;;;;2.25;0.93;;;23.30;96.30;;;;;;5038168;28;20058;-76
2023/06/06 10:45:11;;;;;;;3.03;0.82;;;23.40;97.00;;;;;;5055609;28;20043;-76
2023/06/06 10:47:44;;;;;;;2.95;0.80;;;23.70;95.20;;;;;;5055986;28;20101;-76
2023/06/06 10:50:13;;;;;;;4.00;0.30;;;23.70;95.40;;;;;;5037901;28;20039;-76
2023/06/06 10:52:47;;;;;;;1.85;0.60;;;24.20;94.70;;;;;;5038232;28;20407;-77
2023/06/06 10:55:28;;;;;;;2.33;0.73;;;24.20;94.70;;;;;;5055756;28;20029;-76
2023/06/06 10:57:55;;;;;;;5.18;0.75;;;24.80;93.30;;;;;;5055788;28;20032;-76
2023/06/06 11:00:25;;;;;;;3.63;1.33;;;24.80;93.30;;;;;;5055870;28;20104;-76
2023/06/06 11:02:52;;;;;;;3.08;1.20;;;24.60;93.10;;;;;;5037718;28;20048;-76
2023/06/06 11:05:19;;;;;;;2.22;0.57;;;24.60;93.70;;;;;;5055850;28;20076;-76
2023/06/06 11:07:49;;;;;;;2.65;0.57;;;24.80;93.70;;;;;;5038503;28;20545;-77
2023/06/06 11:10:20;;;;;;;5.35;1.13;;;24.50;92.30;;;;;;5057068;28;20451;-79
2023/06/06 11:12:49;;;;;;;3.83;1.20;;;24.40;92.40;;;;;;5040341;28;20075;-78
2023/06/06 11:15:27;;;;;;;4.40;1.33;;;24.40;93.30;;;;;;5039412;28;20025;-79
2023/06/06 11:17:59;;;;;;;3.70;1.27;;;24.50;93.90;;;;;;5058070;28;20047;-76
2023/06/06 11:20:26;;;;;;;4.88;1.45;;;24.60;92.90;;;;;;5039979;28;20111;-78
2023/06/06 11:23:03;;;;;;;4.95;1.55;;;24.70;92.80;;;;;;5057413;28;20013;-78
2023/06/06 11:25:36;;;;;;;4.38;1.45;;;25.00;92.40;;;;;;5039560;28;20040;-77
2023/06/06 11:28:06;;;;;;;2.35;1.10;;;25.40;92.00;;;;;;5039827;28;20064;-77
2023/06/06 11:30:36;;;;;;;6.70;1.77;;;25.90;91.00;;;;;;5039994;28;20384;-77
2023/06/06 11:33:09;;;;;;;3.28;0.95;;;25.80;91.20;;;;;;5056693;28;20027;-77
2023/06/06 11:35:38;;;;;;;4.47;0.82;;;25.90;90.90;;;;;;5038597;28;20017;-78
2023/06/06 11:38:05;;;;;;;6.25;1.40;;;26.20;90.50;;;;;;5038404;28;20420;-77
2023/06/06 11:40:30;;;;;;;3.42;0.82;;;26.40;89.50;;;;;;5037548;28;20024;-76
2023/06/06 11:42:58;;;;;;;4.63;1.20;;;26.20;89.90;;;;;;5037269;28;20116;-76
2023/06/06 11:45:24;;;;;;;3.70;1.42;;;26.30;88.70;;;;;;5056049;28;20100;-77
2023/06/06 11:47:51;;;;;;;4.32;0.95;;;26.40;87.20;;;;;;5055654;28;20064;-77
2023/06/06 11:50:27;;;;;;;4.65;1.38;;;26.50;87.80;;;;;;5037055;28;20028;-77
2023/06/06 11:52:52;;;;;;;3.50;0.77;;;26.60;88.10;;;;;;5055553;28;20036;-77
2023/06/06 11:55:18;;;;;;;4.88;1.73;;;27.00;86.70;;;;;;5037681;28;20025;-77
2023/06/06 11:57:44;;;;;;;4.25;1.42;;;27.20;85.70;;;;;;5037696;28;20028;-77
2023/06/06 12:00:12;;;;;;;3.83;1.50;;;27.30;82.20;;;;;;5053744;28;20032;-77
2023/06/06 12:02:39;;;;;;;3.90;1.52;;;27.40;83.90;;;;;;5036313;28;20415;-77
2023/06/06 12:05:05;;;;;;;5.82;1.48;;;27.40;82.90;;;;;;5054559;28;20021;-77
2023/06/06 12:07:31;;;;;;;5.63;0.60;;;27.40;84.30;;;;;;5037030;28;20074;-77
2023/06/06 12:10:00;;;;;;;10.80;1.85;;;27.70;81.70;;;;;;5054376;28;20024;-77
2023/06/06 12:12:26;;;;;;;3.25;0.63;;;27.40;80.00;;;;;;5054904;28;20021;-77
2023/06/06 12:14:56;;;;;;;1.73;0.75;;;27.30;82.80;;;;;;5055074;28;20032;-77
2023/06/06 12:17:25;;;;;;;3.47;0.50;;;27.40;81.80;;;;;;5055154;28;20033;-77
2023/06/06 12:19:54;;;;;;;4.95;1.10;;;27.70;81.90;;;;;;5055002;28;20480;-77
2023/06/06 12:22:31;;;;;;;4.53;0.93;;;27.90;79.60;;;;;;5036748;28;20479;-77
2023/06/06 12:24:56;;;;;;;6.05;1.13;;;27.80;79.50;;;;;;5054848;28;20075;-77
2023/06/06 12:27:26;;;;;;;3.03;0.90;;;27.90;78.50;;;;;;5054845;28;20017;-77
2023/06/06 12:29:54;;;;;;;6.40;0.95;;;28.00;79.00;;;;;;5037062;28;20035;-77
2023/06/06 12:32:22;;;;;;;4.68;1.27;;;28.10;78.40;;;;;;5036512;28;20078;-77
2023/06/06 12:35:10;;;;;;;2.33;0.52;;;28.30;77.00;;;;;;5036580;28;20032;-77
2023/06/06 12:37:43;;;;;;;5.88;0.73;;;28.50;77.50;;;;;;5054679;28;20021;-77
2023/06/06 12:40:13;;;;;;;3.83;1.00;;;28.70;76.30;;;;;;5036443;28;20028;-77
2023/06/06 12:42:39;;;;;;;10.48;1.00;;;28.90;75.60;;;;;;5055045;28;20021;-77
2023/06/06 12:45:06;;;;;;;6.53;1.23;;;28.90;75.90;;;;;;5055083;28;20384;-77
2023/06/06 12:47:32;;;;;;;1.45;0.43;;;29.10;74.70;;;;;;5036767;28;20047;-77
2023/06/06 12:49:58;;;;;;;4.20;0.45;;;28.90;72.90;;;;;;5036605;28;20032;-77
2023/06/06 12:52:24;;;;;;;4.70;0.65;;;28.90;72.00;;;;;;5054924;28;20404;-77
2023/06/06 12:54:49;;;;;;;3.13;0.57;;;29.20;72.10;;;;;;5054619;28;20031;-77